Time;durP1;ratioP1;P1;durP2;ratioP2;P2;SDS_P1;SDS_P2;PMS_P1;PMS_P2;Temp;Humidity;BMP_temperature;BMP_pressure;BME280_temperature;BME280_humidity;BME280_pressure;Samples;Min_cycle;Max_cycle;Signal;HPM_P1;HPM_P2
2021/11/21 00:01:55;;;;;;;9.07;5.63;;;;;;;10.15;75.91;99682.34;4938873;29;20123;-70
2021/11/21 00:04:28;;;;;;;12.80;5.90;;;;;;;10.18;75.93;99682.34;4938243;29;20048;-70
2021/11/21 00:07:01;;;;;;;9.75;5.75;;;;;;;10.24;75.78;99676.41;4938493;29;20487;-71
2021/11/21 00:09:32;;;;;;;11.20;6.18;;;;;;;10.18;75.89;99681.50;4938142;29;20074;-71
2021/11/21 00:12:05;;;;;;;10.52;6.10;;;;;;;10.08;75.38;99670.41;4938553;29;20051;-71
2021/11/21 00:14:35;;;;;;;11.57;6.85;;;;;;;9.87;76.13;99666.13;4938443;29;20134;-70
2021/11/21 00:17:07;;;;;;;11.10;7.10;;;;;;;9.80;76.05;99669.53;4938297;29;20099;-69
2021/11/21 00:19:41;;;;;;;12.65;6.70;;;;;;;9.72;76.46;99667.78;4938003;29;20134;-70
2021/11/21 00:22:15;;;;;;;14.15;7.43;;;;;;;9.79;76.45;99664.44;4937841;29;20115;-70
2021/11/21 00:24:46;;;;;;;10.82;6.00;;;;;;;9.82;76.50;99672.06;4937799;29;20146;-70
2021/11/21 00:27:18;;;;;;;11.15;6.57;;;;;;;9.73;76.77;99661.88;4937860;29;20088;-71
2021/11/21 00:29:48;;;;;;;11.35;6.45;;;;;;;9.86;76.82;99658.50;4937812;29;20051;-70
2021/11/21 00:32:17;;;;;;;9.63;5.85;;;;;;;9.89;76.48;99661.03;4937944;29;20502;-70
2021/11/21 00:34:48;;;;;;;11.07;6.00;;;;;;;9.88;76.73;99646.59;4937666;29;20062;-70
2021/11/21 00:37:25;;;;;;;11.23;6.20;;;;;;;9.94;76.09;99657.66;4937634;29;20048;-71
2021/11/21 00:39:57;;;;;;;12.18;6.55;;;;;;;9.90;76.79;99650.00;4937955;29;20055;-71
2021/11/21 00:42:29;;;;;;;12.00;6.70;;;;;;;9.83;76.14;99643.19;4937842;29;20060;-71
2021/11/21 00:45:01;;;;;;;9.75;5.97;;;;;;;9.92;76.52;99638.09;4937402;29;20138;-71
2021/11/21 00:47:30;;;;;;;13.00;6.72;;;;;;;9.95;75.51;99630.47;4937558;29;20086;-71
2021/11/21 00:50:02;;;;;;;10.57;5.80;;;;;;;9.85;74.98;99626.19;4937359;29;20062;-70
2021/11/21 00:52:35;;;;;;;12.52;6.32;;;;;;;9.77;75.13;99630.44;4937307;29;20135;-71
2021/11/21 00:55:11;;;;;;;10.52;6.20;;;;;;;9.75;75.05;99629.56;4920665;29;20142;-70
2021/11/21 00:57:41;;;;;;;12.00;6.68;;;;;;;9.75;74.79;99637.22;4937924;29;20056;-70
2021/11/21 01:00:16;;;;;;;12.23;6.53;;;;;;;9.83;75.02;99627.91;4937546;29;20064;-70
2021/11/21 01:02:48;;;;;;;11.77;6.40;;;;;;;9.74;74.79;99635.53;4937157;29;20052;-70
2021/11/21 01:05:18;;;;;;;10.40;5.95;;;;;;;9.56;75.35;99633.78;4937064;29;20059;-71
2021/11/21 01:07:50;;;;;;;10.07;5.53;;;;;;;9.49;75.88;99627.00;4937362;29;20438;-71
2021/11/21 01:10:25;;;;;;;11.05;5.90;;;;;;;9.69;75.23;99625.34;4937434;29;20077;-71
2021/11/21 01:12:57;;;;;;;9.82;5.78;;;;;;;9.73;75.59;99616.84;4936954;29;20059;-71
2021/11/21 01:15:27;;;;;;;10.02;5.95;;;;;;;9.72;76.00;99610.03;4936973;29;20051;-71
2021/11/21 01:18:00;;;;;;;13.25;6.20;;;;;;;9.75;75.58;99606.66;4936938;29;20494;-71
2021/11/21 01:20:35;;;;;;;10.98;5.95;;;;;;;9.64;75.30;99595.59;4936730;29;20059;-70
2021/11/21 01:23:10;;;;;;;11.40;6.50;;;;;;;9.37;75.87;99594.69;4936865;29;20062;-71
2021/11/21 01:25:42;;;;;;;12.57;6.57;;;;;;;9.24;75.93;99595.50;4936766;29;20059;-71
2021/11/21 01:28:16;;;;;;;13.45;7.03;;;;;;;9.36;76.07;99592.97;4937115;29;20051;-71
2021/11/21 01:30:49;;;;;;;11.55;6.65;;;;;;;9.42;76.39;99585.38;4936728;29;20070;-70
2021/11/21 01:33:21;;;;;;;11.98;6.43;;;;;;;9.63;76.19;99583.69;4936661;29;20091;-71
2021/11/21 01:35:54;;;;;;;12.48;6.82;;;;;;;9.68;76.24;99576.91;4936664;29;20079;-71
2021/11/21 01:38:27;;;;;;;13.75;6.80;;;;;;;9.67;76.29;99572.69;4920207;29;20055;-70
2021/11/21 01:40:58;;;;;;;12.27;6.63;;;;;;;9.59;76.67;99562.47;4936614;29;20568;-71
2021/11/21 01:43:30;;;;;;;11.07;6.57;;;;;;;9.63;76.11;99563.31;4936808;29;20498;-71
2021/11/21 01:46:00;;;;;;;13.50;6.43;;;;;;;9.64;76.15;99570.13;4936504;29;20059;-70
2021/11/21 01:48:32;;;;;;;12.25;6.72;;;;;;;9.62;76.53;99561.63;4936793;29;20055;-71
2021/11/21 01:51:08;;;;;;;10.82;6.57;;;;;;;9.68;75.93;99564.16;4936797;29;20107;-70
2021/11/21 01:53:41;;;;;;;13.25;6.70;;;;;;;9.63;76.01;99559.06;4936714;29;20055;-70
2021/11/21 01:56:15;;;;;;;12.13;6.50;;;;;;;9.53;76.46;99546.31;4936746;29;20450;-71
2021/11/21 01:58:47;;;;;;;11.90;6.57;;;;;;;9.58;75.68;99549.72;4936417;29;20143;-71
2021/11/21 02:01:17;;;;;;;11.43;6.13;;;;;;;9.62;76.55;99546.34;4936686;29;20056;-70
2021/11/21 02:03:49;;;;;;;;;;;;;;;9.57;76.20;99545.47;4936937;29;20083;-71
2021/11/21 02:06:21;;;;;;;12.43;6.97;;;;;;;9.50;76.37;99538.69;4936869;29;20183;-71
2021/11/21 02:08:54;;;;;;;13.98;7.35;;;;;;;9.42;76.03;99539.53;4936327;29;20482;-71
2021/11/21 02:11:26;;;;;;;14.75;8.15;;;;;;;9.26;75.73;99532.69;4936290;29;20052;-70
2021/11/21 02:13:57;;;;;;;14.07;7.50;;;;;;;9.31;76.87;99527.59;4936564;29;20056;-70
2021/11/21 02:16:31;;;;;;;13.18;7.32;;;;;;;9.25;76.70;99530.16;4936207;29;20063;-71
2021/11/21 02:19:01;;;;;;;11.57;6.82;;;;;;;9.18;76.59;99529.28;4936158;29;20068;-70
2021/11/21 02:21:35;;;;;;;13.25;7.38;;;;;;;9.12;76.99;99524.16;4936228;29;20135;-71
2021/11/21 02:24:07;;;;;;;15.30;7.60;;;;;;;9.13;77.12;99530.97;4936257;29;20051;-71
2021/11/21 02:26:39;;;;;;;12.20;7.07;;;;;;;9.22;77.06;99530.97;4936135;29;20111;-70
2021/11/21 02:29:11;;;;;;;13.32;7.57;;;;;;;9.24;77.22;99520.78;4936306;29;20111;-70
2021/11/21 02:31:44;;;;;;;13.48;6.95;;;;;;;9.29;77.43;99526.75;4936368;29;20517;-71
2021/11/21 02:34:17;;;;;;;11.60;7.30;;;;;;;9.40;76.98;99536.13;4936412;29;20044;-70
2021/11/21 02:36:51;;;;;;;12.90;6.88;;;;;;;9.48;77.23;99525.09;4936056;29;20161;-70
2021/11/21 02:39:23;;;;;;;11.65;6.75;;;;;;;9.49;77.11;99521.69;4936355;29;20142;-71
2021/11/21 02:41:56;;;;;;;13.85;8.02;;;;;;;9.49;77.29;99519.13;4935965;29;20139;-71
2021/11/21 02:44:29;;;;;;;12.70;7.13;;;;;;;9.39;77.01;99516.59;4935852;29;20052;-71
2021/11/21 02:47:02;;;;;;;12.93;7.03;;;;;;;9.36;77.55;99503.84;4936539;29;20060;-71
2021/11/21 02:49:34;;;;;;;10.95;6.68;;;;;;;9.36;77.15;99511.47;4936170;29;20056;-70
2021/11/21 02:52:08;;;;;;;14.00;7.15;;;;;;;9.36;77.81;99503.84;4936131;29;20567;-70
2021/11/21 02:54:50;;;;;;;14.20;6.93;;;;;;;9.41;77.36;99499.59;4935817;29;20048;-70
2021/11/21 02:57:19;;;;;;;13.63;7.38;;;;;;;9.43;77.28;99500.44;4935841;29;20147;-71
2021/11/21 02:59:48;;;;;;;13.82;7.38;;;;;;;9.51;76.82;99495.38;4935808;29;20063;-71
2021/11/21 03:02:19;;;;;;;13.07;6.85;;;;;;;9.47;76.93;99490.28;4936073;29;20143;-71
2021/11/21 03:04:50;;;;;;;12.55;7.13;;;;;;;9.36;76.74;99488.56;4919228;29;20056;-70
2021/11/21 03:07:24;;;;;;;13.43;8.25;;;;;;;9.27;77.67;99488.56;4936309;29;20060;-71
2021/11/21 03:09:53;;;;;;;12.65;8.10;;;;;;;9.35;76.79;99480.94;4939503;29;20150;-70
2021/11/21 03:12:26;;;;;;;14.65;7.97;;;;;;;9.41;77.34;99479.22;4939501;29;20054;-71
2021/11/21 03:14:55;;;;;;;13.18;7.78;;;;;;;9.38;76.80;99476.66;4939470;29;20048;-70
2021/11/21 03:17:27;;;;;;;13.02;7.35;;;;;;;9.37;76.56;99475.00;4939140;29;20052;-72
2021/11/21 03:19:56;;;;;;;15.13;7.60;;;;;;;9.15;76.56;99473.25;4939044;29;20115;-70
2021/11/21 03:22:30;;;;;;;;;;;;;;;8.99;77.14;99469.00;4939983;29;20394;-71
2021/11/21 03:25:00;;;;;;;15.63;8.68;;;;;;;9.04;77.82;99472.41;4939178;29;19930;-70
2021/11/21 03:27:33;;;;;;;14.50;8.23;;;;;;;9.04;77.61;99474.09;4938978;29;20549;-70
2021/11/21 03:30:02;;;;;;;16.33;7.80;;;;;;;8.92;77.54;99462.19;4939388;29;20549;-71
2021/11/21 03:32:34;;;;;;;;;;;;;;;9.05;78.23;99475.78;4939514;29;20052;-70
2021/11/21 03:35:05;;;;;;;14.77;7.60;;;;;;;9.14;77.86;99469.00;4938711;29;20432;-69
2021/11/21 03:37:39;;;;;;;17.27;8.30;;;;;;;9.23;77.52;99461.41;4939007;29;20490;-70
2021/11/21 03:40:12;;;;;;;14.05;8.57;;;;;;;9.22;77.89;99454.59;4938747;29;20059;-71
2021/11/21 03:42:45;;;;;;;17.30;9.02;;;;;;;9.21;77.89;99454.59;4938626;29;20047;-71
2021/11/21 03:45:15;;;;;;;15.63;8.90;;;;;;;9.25;78.31;99448.66;4938471;29;20105;-69
2021/11/21 03:47:46;;;;;;;17.40;9.85;;;;;;;9.29;77.86;99446.13;4938965;29;20414;-70
2021/11/21 03:50:19;;;;;;;17.15;9.60;;;;;;;9.34;78.12;99439.31;4938556;29;20066;-71
2021/11/21 03:52:54;;;;;;;19.15;9.05;;;;;;;9.41;77.23;99441.03;4938533;29;20051;-70
2021/11/21 03:55:25;;;;;;;19.33;9.90;;;;;;;9.34;77.23;99434.22;4938962;29;20379;-70
2021/11/21 03:57:58;;;;;;;17.13;10.27;;;;;;;9.35;78.19;99435.94;4938413;29;20086;-70
2021/11/21 04:00:28;;;;;;;18.23;9.45;;;;;;;9.27;77.89;99435.09;4938711;29;20064;-71
2021/11/21 04:03:02;;;;;;;16.05;9.57;;;;;;;9.22;78.02;99431.69;4921575;29;20484;-71
2021/11/21 04:05:31;;;;;;;15.57;9.45;;;;;;;9.23;77.58;99435.94;4938132;29;20048;-70
2021/11/21 04:08:05;;;;;;;13.83;7.87;;;;;;;9.12;78.14;99427.44;4938220;29;20044;-70
2021/11/21 04:10:35;;;;;;;19.23;10.15;;;;;;;9.20;78.12;99433.38;4938477;29;20760;-69
2021/11/21 04:13:07;;;;;;;;;;;;;;;9.06;77.93;99426.56;4938819;29;20052;-70
2021/11/21 04:15:37;;;;;;;17.75;9.57;;;;;;;9.04;78.51;99418.94;4938131;29;19929;-71
2021/11/21 04:18:09;;;;;;;18.13;9.73;;;;;;;9.08;78.56;99414.69;4938357;29;20564;-69
2021/11/21 04:20:39;;;;;;;17.67;9.77;;;;;;;8.91;78.60;99412.13;4937002;29;20052;-69
2021/11/21 04:23:13;;;;;;;19.98;10.38;;;;;;;8.73;78.79;99407.84;4937894;29;20044;-71
2021/11/21 04:25:42;;;;;;;15.45;8.98;;;;;;;8.84;79.22;99415.50;4937851;29;20047;-71
2021/11/21 04:28:14;;;;;;;18.05;9.63;;;;;;;8.79;79.27;99412.09;4937742;29;20063;-71
2021/11/21 04:30:44;;;;;;;16.95;9.07;;;;;;;8.78;79.10;99420.59;4938015;29;20056;-71
2021/11/21 04:33:17;;;;;;;16.92;8.68;;;;;;;8.78;79.61;99420.59;4937991;29;20150;-71
2021/11/21 04:35:46;;;;;;;20.52;9.45;;;;;;;8.90;79.24;99407.06;4938333;29;20080;-71
2021/11/21 04:38:23;;;;;;;17.35;9.73;;;;;;;8.90;79.51;99410.41;4937880;29;20054;-71
2021/11/21 04:40:53;;;;;;;17.92;9.90;;;;;;;8.87;79.54;99412.97;4937937;29;20138;-69
2021/11/21 04:43:26;;;;;;;22.88;10.45;;;;;;;8.90;79.01;99410.41;4938179;29;20055;-71
2021/11/21 04:45:58;;;;;;;18.13;10.18;;;;;;;8.78;78.42;99407.88;4937456;29;20055;-69
2021/11/21 04:48:31;;;;;;;18.00;9.07;;;;;;;8.53;78.49;99411.19;4920803;29;20078;-69
2021/11/21 04:51:04;;;;;;;20.02;9.85;;;;;;;8.57;78.58;99405.25;4937425;29;20111;-69
2021/11/21 04:53:38;;;;;;;19.65;10.15;;;;;;;8.66;78.40;99405.31;4937718;29;20056;-71
2021/11/21 04:56:10;;;;;;;21.55;10.70;;;;;;;8.75;78.73;99396.00;4937697;29;20051;-71
2021/11/21 04:58:39;;;;;;;18.17;10.38;;;;;;;8.73;77.68;99396.84;4937219;29;20111;-69
2021/11/21 05:01:11;;;;;;;16.45;9.40;;;;;;;8.74;77.81;99393.44;4937234;29;20103;-69
2021/11/21 05:03:45;;;;;;;20.15;10.43;;;;;;;8.71;78.27;99395.97;4920495;29;20063;-70
2021/11/21 05:06:14;;;;;;;17.05;9.70;;;;;;;8.72;77.60;99395.13;4937119;29;20048;-71
2021/11/21 05:08:48;;;;;;;;;;;;;;;8.70;77.78;99384.13;4937788;29;20075;-71
2021/11/21 05:11:20;;;;;;;18.33;9.85;;;;;;;8.72;77.14;99383.28;4937113;29;19926;-69
2021/11/21 05:13:52;;;;;;;20.33;10.23;;;;;;;8.71;77.66;99378.16;4937388;29;20056;-70
2021/11/21 05:16:24;;;;;;;20.15;9.10;;;;;;;8.76;77.09;99377.34;4937550;29;20604;-70
2021/11/21 05:18:54;;;;;;;20.23;10.20;;;;;;;8.80;77.15;99373.13;4936909;29;20055;-71
2021/11/21 05:21:26;;;;;;;19.52;9.50;;;;;;;8.74;76.78;99378.16;4936754;29;20108;-70
2021/11/21 05:24:01;;;;;;;20.88;10.15;;;;;;;8.70;76.88;99371.41;4936830;29;20055;-70
2021/11/21 05:26:34;;;;;;;18.05;9.95;;;;;;;8.58;76.60;99366.28;4937055;29;20059;-69
2021/11/21 05:29:05;;;;;;;17.85;9.02;;;;;;;8.54;76.53;99374.75;4936747;29;20051;-71
2021/11/21 05:31:37;;;;;;;19.15;10.43;;;;;;;8.46;77.80;99367.09;4936619;29;20058;-70
2021/11/21 05:34:09;;;;;;;19.65;9.93;;;;;;;8.51;77.72;99377.28;4936716;29;20070;-70
2021/11/21 05:36:41;;;;;;;19.48;10.05;;;;;;;8.58;77.31;99371.38;4936725;29;20051;-72
2021/11/21 05:39:16;;;;;;;22.05;10.00;;;;;;;8.62;76.92;99365.44;4936618;29;20115;-72
2021/11/21 05:41:48;;;;;;;18.33;8.98;;;;;;;8.58;76.88;99371.38;4919610;29;20576;-70
2021/11/21 05:44:21;;;;;;;23.17;10.57;;;;;;;8.36;76.88;99369.59;4937141;29;20106;-70
2021/11/21 05:46:53;;;;;;;24.73;10.95;;;;;;;8.45;77.23;99365.41;4937175;29;20047;-70
2021/11/21 05:49:25;;;;;;;20.33;10.00;;;;;;;8.42;77.27;99364.56;4936452;29;20056;-72
2021/11/21 05:51:58;;;;;;;19.92;9.63;;;;;;;8.38;77.71;99362.81;4936763;29;20069;-71
2021/11/21 05:54:32;;;;;;;19.42;9.48;;;;;;;8.46;77.29;99361.16;4936709;29;20067;-70
2021/11/21 05:57:05;;;;;;;20.80;9.85;;;;;;;8.53;77.45;99357.78;4936432;29;20050;-72
2021/11/21 05:59:39;;;;;;;18.15;10.35;;;;;;;8.61;77.18;99345.94;4936610;29;20055;-70
2021/11/21 06:02:11;;;;;;;21.52;10.77;;;;;;;8.62;77.00;99342.53;4936598;29;20147;-70
2021/11/21 06:04:43;;;;;;;19.10;10.13;;;;;;;8.63;77.72;99344.25;4936359;29;20059;-70
2021/11/21 06:07:13;;;;;;;18.35;10.20;;;;;;;8.66;76.86;99344.25;4919971;29;20061;-69
2021/11/21 06:09:43;;;;;;;19.85;10.93;;;;;;;8.60;77.60;99344.22;4936169;29;20078;-72
2021/11/21 06:15:44;;;;;;;21.83;11.13;;;;;;;8.70;76.61;99343.41;4860070;29;20495;-66
2021/11/21 06:18:16;;;;;;;18.40;9.48;;;;;;;8.75;76.77;99344.28;4862014;29;20058;-66
2021/11/21 06:20:49;;;;;;;21.50;10.50;;;;;;;8.67;76.34;99343.41;4861191;29;20144;-66
2021/11/21 06:23:21;;;;;;;19.70;10.95;;;;;;;8.56;76.96;99343.41;4861096;29;20061;-66
2021/11/21 06:25:53;;;;;;;21.10;9.93;;;;;;;8.57;76.62;99339.13;4861330;29;20065;-66
2021/11/21 06:28:25;;;;;;;21.20;11.32;;;;;;;8.61;77.04;99335.78;4861109;29;20077;-66
2021/11/21 06:30:57;;;;;;;23.98;12.10;;;;;;;8.63;75.79;99339.16;4861363;29;20136;-66
2021/11/21 06:33:30;;;;;;;23.15;11.38;;;;;;;8.56;76.80;99342.53;4861315;29;20140;-67
2021/11/21 06:36:03;;;;;;;20.55;10.75;;;;;;;8.57;76.24;99340.00;4860976;29;20137;-66
2021/11/21 06:38:32;;;;;;;21.13;10.43;;;;;;;8.60;76.53;99339.16;4860961;29;20058;-66
2021/11/21 06:41:06;;;;;;;;;;;;;;;8.63;76.59;99342.56;4861361;29;20109;-66
2021/11/21 06:43:36;;;;;;;23.25;10.43;;;;;;;8.66;76.35;99344.25;4863466;29;19931;-66
2021/11/21 06:46:09;;;;;;;22.92;11.73;;;;;;;8.60;76.77;99341.69;4864847;29;20057;-66
2021/11/21 06:48:39;;;;;;;22.20;10.98;;;;;;;8.64;76.50;99344.25;4864433;29;20065;-66
2021/11/21 06:51:12;;;;;;;;;;;;;;;8.65;76.46;99345.94;4865154;29;20068;-68
2021/11/21 06:53:43;;;;;;;22.02;10.93;;;;;;;8.54;75.81;99334.06;4864658;29;19931;-67
2021/11/21 06:56:14;;;;;;;22.10;11.35;;;;;;;8.50;76.61;99324.72;4864900;29;20400;-67
2021/11/21 06:58:44;;;;;;;21.02;12.18;;;;;;;8.54;76.40;99334.88;4864381;29;20065;-68
2021/11/21 07:01:16;;;;;;;25.83;11.85;;;;;;;8.61;77.00;99335.78;4864261;29;20053;-68
2021/11/21 07:03:47;;;;;;;20.88;11.35;;;;;;;8.68;76.62;99334.94;4864527;29;20057;-66
2021/11/21 07:06:30;;;;;;;23.27;11.70;;;;;;;8.69;76.41;99328.97;4864230;29;20495;-66
2021/11/21 07:09:00;;;;;;;21.60;11.45;;;;;;;8.64;76.40;99330.66;4864137;29;20054;-66
2021/11/21 07:11:31;;;;;;;21.75;11.35;;;;;;;8.68;76.83;99327.31;4864263;29;20057;-66
2021/11/21 07:14:01;;;;;;;22.92;11.88;;;;;;;8.60;77.02;99323.88;4864055;29;20136;-66
2021/11/21 07:16:35;;;;;;;25.75;12.52;;;;;;;8.73;76.63;99320.53;4864056;29;20089;-66
2021/11/21 07:19:04;;;;;;;24.02;12.55;;;;;;;8.74;77.20;99323.06;4864211;29;20068;-66
2021/11/21 07:21:37;;;;;;;22.48;11.98;;;;;;;8.83;76.76;99327.28;4863872;29;20102;-67
2021/11/21 07:24:07;;;;;;;25.27;12.68;;;;;;;8.84;76.47;99326.47;4863893;29;20058;-67
2021/11/21 07:26:42;;;;;;;22.15;10.95;;;;;;;8.84;76.38;99325.59;4863994;29;20088;-66
2021/11/21 07:29:12;;;;;;;24.75;12.38;;;;;;;8.84;75.75;99323.91;4863822;29;20064;-66
2021/11/21 07:31:44;;;;;;;22.70;12.15;;;;;;;8.85;76.57;99329.84;4863935;29;20074;-67
2021/11/21 07:34:13;;;;;;;23.38;11.55;;;;;;;8.91;75.57;99320.53;4864302;29;20085;-66
2021/11/21 07:36:46;;;;;;;22.27;12.75;;;;;;;8.84;76.17;99329.00;4863675;29;20563;-66
2021/11/21 07:39:15;;;;;;;24.60;10.77;;;;;;;8.73;75.88;99328.16;4863875;29;20057;-66
2021/11/21 07:41:49;;;;;;;25.70;12.63;;;;;;;8.74;75.79;99319.66;4863623;29;20046;-66
2021/11/21 07:44:20;;;;;;;26.80;12.50;;;;;;;8.86;75.95;99322.22;4863771;29;20068;-66
2021/11/21 07:46:49;;;;;;;22.80;12.00;;;;;;;8.86;75.80;99317.13;4862936;29;20133;-65
2021/11/21 07:49:19;;;;;;;21.90;12.32;;;;;;;8.87;75.99;99318.84;4863463;29;20096;-66
2021/11/21 07:51:51;;;;;;;23.23;12.48;;;;;;;8.95;75.60;99317.13;4863710;29;20488;-66
2021/11/21 07:54:21;;;;;;;23.23;11.30;;;;;;;8.90;75.46;99323.91;4862155;29;20404;-66
2021/11/21 07:56:51;;;;;;;27.48;12.75;;;;;;;8.89;76.16;99327.31;4863294;29;20081;-66
2021/11/21 07:59:20;;;;;;;24.25;12.48;;;;;;;8.91;75.61;99317.97;4863400;29;20606;-66
2021/11/21 08:01:49;;;;;;;21.20;11.35;;;;;;;8.90;75.58;99313.72;4862982;29;20049;-66
2021/11/21 08:04:19;;;;;;;21.13;12.00;;;;;;;8.96;75.03;99311.19;4862717;29;20054;-66
2021/11/21 08:06:48;;;;;;;15.80;8.32;;;;;;;8.88;75.28;99310.34;4862896;29;20053;-66
2021/11/21 08:09:17;;;;;;;25.10;12.55;;;;;;;8.91;75.69;99302.69;4863397;29;20452;-66
2021/11/21 08:11:47;;;;;;;23.98;12.27;;;;;;;9.01;75.22;99301.84;4862756;29;20086;-67
2021/11/21 08:14:17;;;;;;;23.60;12.38;;;;;;;9.05;75.05;99308.63;4863071;29;20408;-66
2021/11/21 08:16:47;;;;;;;24.70;12.88;;;;;;;9.08;74.73;99303.53;4863303;29;20089;-66
2021/11/21 08:19:17;;;;;;;21.13;12.50;;;;;;;9.05;75.26;99305.22;4862775;29;20377;-66
2021/11/21 08:21:46;;;;;;;24.10;12.57;;;;;;;9.03;74.62;99300.16;4863423;29;20441;-67
2021/11/21 08:24:18;;;;;;;22.25;11.57;;;;;;;9.03;75.44;99297.59;4862863;29;20049;-67
2021/11/21 08:26:48;;;;;;;23.75;12.80;;;;;;;9.05;75.23;99297.59;4862868;29;20062;-66
2021/11/21 08:29:22;;;;;;;32.53;14.15;;;;;;;8.87;75.11;99298.47;4862670;29;20137;-66
2021/11/21 08:31:59;;;;;;;28.63;13.70;;;;;;;8.91;75.74;99305.25;4863001;29;20129;-66
2021/11/21 08:34:30;;;;;;;28.88;14.10;;;;;;;8.93;75.40;99292.50;4862603;29;20058;-66
2021/11/21 08:37:02;;;;;;;22.52;11.63;;;;;;;8.98;75.22;99306.94;4862912;29;20053;-66
2021/11/21 08:39:33;;;;;;;23.90;11.38;;;;;;;8.89;nan;99304.41;4862583;29;20053;-67
2021/11/21 08:42:02;;;;;;;24.75;11.50;;;;;;;9.01;75.61;99306.94;4862784;29;20058;-67
2021/11/21 08:44:37;;;;;;;22.10;12.05;;;;;;;9.07;75.32;99301.00;4862716;29;20061;-66
2021/11/21 08:47:06;;;;;;;23.70;11.60;;;;;;;9.20;74.92;99303.53;4862391;29;20567;-66
2021/11/21 08:49:36;;;;;;;21.92;11.70;;;;;;;9.17;75.12;99313.72;4862313;29;20041;-66
2021/11/21 08:52:06;;;;;;;23.40;12.50;;;;;;;9.19;75.48;99301.81;4862360;29;20073;-66
2021/11/21 08:54:35;;;;;;;23.52;11.07;;;;;;;9.24;75.89;99310.31;4862567;29;20136;-67
2021/11/21 08:57:05;;;;;;;21.33;11.43;;;;;;;9.24;75.13;99305.22;4862516;29;20400;-67
2021/11/21 08:59:34;;;;;;;20.42;10.90;;;;;;;9.13;75.04;99301.84;4845932;29;20080;-66
2021/11/21 09:02:05;;;;;;;23.73;11.35;;;;;;;9.03;75.39;99317.97;4862483;29;20041;-66
2021/11/21 09:05:03;;;;;;;24.80;11.52;;;;;;;9.06;75.56;99307.78;4861635;29;20061;-66
2021/11/21 09:07:33;;;;;;;25.83;12.77;;;;;;;9.17;75.80;99305.22;4862323;29;20133;-67
2021/11/21 09:10:02;;;;;;;24.77;12.00;;;;;;;9.22;75.51;99309.47;4862332;29;20093;-66
2021/11/21 09:12:32;;;;;;;22.08;11.73;;;;;;;9.31;75.53;99306.91;4862230;29;20407;-66
2021/11/21 09:15:01;;;;;;;20.63;11.45;;;;;;;9.35;75.25;99298.44;4860567;29;20050;-66
2021/11/21 09:17:33;;;;;;;23.58;10.65;;;;;;;9.33;74.88;99294.19;4861949;29;20053;-66
2021/11/21 09:20:03;;;;;;;21.20;11.50;;;;;;;9.30;75.10;99289.94;4861906;29;20053;-66
2021/11/21 09:22:35;;;;;;;22.75;10.75;;;;;;;9.19;74.60;99284.00;4861831;29;20054;-67
2021/11/21 09:25:05;;;;;;;22.98;11.52;;;;;;;9.05;74.80;99283.19;4862122;29;20500;-67
2021/11/21 09:27:35;;;;;;;21.23;11.23;;;;;;;9.13;75.30;99281.47;4861771;29;20084;-67
2021/11/21 09:30:05;;;;;;;20.60;11.55;;;;;;;9.21;74.63;99272.13;4860586;29;20058;-66
2021/11/21 09:32:35;;;;;;;;;;;;;;;9.26;75.32;99262.75;4862438;29;20046;-66
2021/11/21 09:35:06;;;;;;;20.27;10.50;;;;;;;9.38;74.34;99267.00;4861652;29;19959;-68
2021/11/21 09:37:38;;;;;;;20.05;10.88;;;;;;;9.31;74.40;99255.97;4861962;29;20061;-67
2021/11/21 09:40:12;;;;;;;21.52;10.73;;;;;;;9.22;74.17;99258.53;4861737;29;20080;-66
2021/11/21 09:42:42;;;;;;;22.95;10.65;;;;;;;9.15;75.00;99248.38;4861501;29;20064;-66
2021/11/21 09:45:14;;;;;;;23.83;11.88;;;;;;;9.31;74.99;99250.88;4861534;29;20061;-67
2021/11/21 09:47:50;;;;;;;22.83;11.73;;;;;;;9.44;74.10;99244.91;4861443;29;20130;-67
2021/11/21 09:50:21;;;;;;;18.35;10.60;;;;;;;9.48;74.44;99243.19;4861493;29;20076;-66
2021/11/21 09:52:54;;;;;;;21.30;12.00;;;;;;;9.46;74.12;99237.25;4861403;29;20077;-67
2021/11/21 09:55:27;;;;;;;22.00;12.05;;;;;;;9.37;74.57;99227.97;4861424;29;20140;-66
2021/11/21 09:57:56;;;;;;;20.67;11.02;;;;;;;9.50;74.29;99231.31;4861209;29;20057;-66
2021/11/21 10:00:30;;;;;;;20.50;11.07;;;;;;;9.48;74.33;99225.34;4861438;29;20137;-66
2021/11/21 10:03:03;;;;;;;23.15;11.68;;;;;;;9.37;74.61;99225.41;4861629;29;20045;-67
2021/11/21 10:05:38;;;;;;;21.35;11.02;;;;;;;9.32;75.03;99211.84;4861547;29;20076;-66
2021/11/21 10:08:13;;;;;;;22.80;11.63;;;;;;;9.45;75.20;99208.38;4861231;29;20049;-67
2021/11/21 10:10:44;;;;;;;22.90;11.57;;;;;;;9.67;74.79;99203.22;4875449;29;20551;-66
2021/11/21 10:13:26;;;;;;;21.25;11.75;;;;;;;9.72;74.87;99201.47;4861204;29;20061;-67
2021/11/21 10:15:57;;;;;;;20.83;10.43;;;;;;;9.76;74.40;99187.88;4861025;29;20062;-66
2021/11/21 10:18:28;;;;;;;20.23;10.48;;;;;;;9.80;73.82;99190.41;4863605;29;20144;-67
2021/11/21 10:20:57;;;;;;;22.33;11.48;;;;;;;9.81;74.15;99186.16;4864997;29;20081;-66
2021/11/21 10:23:27;;;;;;;23.52;11.63;;;;;;;9.86;73.90;99176.78;4864909;29;20136;-66
2021/11/21 10:25:59;;;;;;;19.92;11.30;;;;;;;9.96;74.25;99176.69;4865301;29;20512;-66
2021/11/21 10:28:31;;;;;;;23.80;10.77;;;;;;;10.06;73.22;99177.47;4864783;29;20132;-66
2021/11/21 10:31:07;;;;;;;19.38;10.15;;;;;;;10.08;73.79;99165.56;4864968;29;20061;-66
2021/11/21 10:33:41;;;;;;;23.10;10.85;;;;;;;10.11;73.25;99165.53;4865008;29;20203;-67
2021/11/21 10:36:13;;;;;;;20.55;11.27;;;;;;;10.15;73.79;99164.69;4864893;29;20084;-66
2021/11/21 10:38:46;;;;;;;20.13;10.88;;;;;;;10.15;73.05;99151.94;4864396;29;20057;-66
2021/11/21 10:41:20;;;;;;;18.52;10.32;;;;;;;10.18;73.09;99157.03;4864971;29;20454;-67
2021/11/21 10:43:55;;;;;;;21.30;10.80;;;;;;;10.24;73.05;99151.91;4864713;29;20504;-66
2021/11/21 10:46:39;;;;;;;20.05;10.02;;;;;;;10.14;72.87;99144.31;4864460;29;20053;-66
2021/11/21 10:49:26;;;;;;;20.80;10.27;;;;;;;10.03;73.10;99152.00;4864766;29;20053;-66
2021/11/21 10:52:11;;;;;;;21.10;9.25;;;;;;;10.15;73.50;99151.94;4864727;29;20508;-66
2021/11/21 10:54:46;;;;;;;21.15;10.18;;;;;;;10.32;73.04;99144.19;4864447;29;20096;-66
2021/11/21 10:57:19;;;;;;;20.15;10.55;;;;;;;10.42;72.82;99144.06;4864628;29;20106;-66
2021/11/21 10:59:51;;;;;;;22.50;10.25;;;;;;;10.46;72.67;99143.19;4864124;29;20049;-66
2021/11/21 11:02:23;;;;;;;19.33;10.18;;;;;;;10.43;72.95;99138.13;4864297;29;20178;-66
2021/11/21 11:05:04;;;;;;;21.70;10.48;;;;;;;10.50;72.97;99134.66;4864654;29;20144;-66
2021/11/21 11:07:40;;;;;;;20.67;10.73;;;;;;;10.54;72.57;99126.09;4864785;29;20062;-67
2021/11/21 11:10:14;;;;;;;19.08;10.93;;;;;;;10.64;72.41;99131.97;4864225;29;20052;-68
2021/11/21 11:12:46;;;;;;;18.55;10.80;;;;;;;10.66;72.57;99123.44;4864186;29;20109;-67
2021/11/21 11:15:17;;;;;;;20.58;11.15;;;;;;;10.66;71.74;99115.78;4864058;29;20456;-67
2021/11/21 11:17:47;;;;;;;20.85;11.40;;;;;;;10.65;72.00;99118.34;4864230;29;20504;-66
2021/11/21 11:20:21;;;;;;;22.10;10.07;;;;;;;10.58;72.01;99117.56;4863936;29;20102;-66
2021/11/21 11:22:53;;;;;;;22.08;11.93;;;;;;;10.55;72.28;99109.94;4863875;29;20064;-66
2021/11/21 11:25:25;;;;;;;21.17;11.38;;;;;;;10.60;72.20;99103.09;4863804;29;20136;-66
2021/11/21 11:28:00;;;;;;;19.23;10.40;;;;;;;10.62;72.23;99095.41;4863724;29;20053;-66
2021/11/21 11:30:32;;;;;;;22.17;10.30;;;;;;;10.65;72.21;99092.84;4863695;29;20053;-66
2021/11/21 11:33:10;;;;;;;23.80;11.85;;;;;;;10.61;71.57;99093.72;4863807;29;20504;-66
2021/11/21 11:35:43;;;;;;;22.53;12.13;;;;;;;10.66;71.84;99084.31;4863527;29;20053;-67
2021/11/21 11:38:16;;;;;;;22.38;11.63;;;;;;;10.58;72.10;99086.13;4863344;29;20077;-66
2021/11/21 11:40:52;;;;;;;20.65;10.68;;;;;;;10.55;71.77;99088.69;4863575;29;20110;-67
2021/11/21 11:43:32;;;;;;;20.05;10.13;;;;;;;10.51;71.77;99087.84;4863453;29;20416;-68
2021/11/21 11:46:08;;;;;;;24.65;12.43;;;;;;;10.61;72.19;99081.81;4863586;29;20053;-68
2021/11/21 11:48:48;;;;;;;24.93;11.63;;;;;;;10.65;71.99;99077.53;4863328;29;20077;-69
2021/11/21 11:51:54;;;;;;;19.88;10.63;;;;;;;10.67;71.90;99076.66;4863602;29;20125;-68
2021/11/21 11:54:28;;;;;;;19.80;10.95;;;;;;;10.48;71.46;99075.16;4863251;29;20499;-68
2021/11/21 11:57:03;;;;;;;21.08;10.25;;;;;;;10.40;71.70;99069.28;4863479;29;20053;-68